Airport View

Enter AWOS ICAO identifier for current METAR.

ex. KFNL

KRDU 080651Z 23009KT 10SM FEW250 18/14 A2973 RMK AO2 SLP063 T01780139

8 Apr 2020 07:36

Phone: 919-840-0816

Other Area AWOS: KIGX - KTTA - KLHZ - KTDF

TAF KRDU 080523Z 0806/0906 24008KT P6SM SCT070 BKN250 FM081600 26010G18KT P6SM SCT250 FM082000 27012G20KT P6SM VCTS SCT050CB BKN250 TEMPO 0822/0902 30018G34KT 3SM TSRA BR OVC045CB FM090400 25004KT P6SM BKN250